sensor_id;sensor_type;location;lat;lon;timestamp;temperature;humidity
9824;DHT22;4951;50.778;7.196;2023-12-28T00:01:48;10.30;1.00
9824;DHT22;4951;50.778;7.196;2023-12-28T00:04:26;10.30;24.40
9824;DHT22;4951;50.778;7.196;2023-12-28T00:06:56;10.30;91.00
9824;DHT22;4951;50.778;7.196;2023-12-28T00:09:29;10.20;99.90
9824;DHT22;4951;50.778;7.196;2023-12-28T00:12:00;10.20;99.90
9824;DHT22;4951;50.778;7.196;2023-12-28T00:14:31;10.20;99.90
9824;DHT22;4951;50.778;7.196;2023-12-28T00:17:01;10.20;99.90
9824;DHT22;4951;50.778;7.196;2023-12-28T00:19:33;10.10;99.90
9824;DHT22;4951;50.778;7.196;2023-12-28T00:22:17;10.10;99.90
9824;DHT22;4951;50.778;7.196;2023-12-28T00:24:46;10.10;99.90
9824;DHT22;4951;50.778;7.196;2023-12-28T00:27:17;10.10;1.00
9824;DHT22;4951;50.778;7.196;2023-12-28T00:29:59;10.00;1.00
9824;DHT22;4951;50.778;7.196;2023-12-28T00:32:28;10.00;1.00
9824;DHT22;4951;50.778;7.196;2023-12-28T00:34:57;10.00;1.00
9824;DHT22;4951;50.778;7.196;2023-12-28T00:37:27;10.00;1.00
9824;DHT22;4951;50.778;7.196;2023-12-28T00:39:55;10.00;1.00
9824;DHT22;4951;50.778;7.196;2023-12-28T00:42:23;10.00;1.00
9824;DHT22;4951;50.778;7.196;2023-12-28T00:44:52;9.90;1.00
9824;DHT22;4951;50.778;7.196;2023-12-28T00:47:30;9.90;10.20
9824;DHT22;4951;50.778;7.196;2023-12-28T00:50:02;9.80;99.90
9824;DHT22;4951;50.778;7.196;2023-12-28T00:52:36;9.70;1.00
9824;DHT22;4951;50.778;7.196;2023-12-28T00:55:07;9.60;1.70
9824;DHT22;4951;50.778;7.196;2023-12-28T00:57:39;9.50;99.90
9824;DHT22;4951;50.778;7.196;2023-12-28T01:00:12;9.50;1.00
9824;DHT22;4951;50.778;7.196;2023-12-28T01:02:48;9.40;1.00
9824;DHT22;4951;50.778;7.196;2023-12-28T01:05:17;9.40;1.00
9824;DHT22;4951;50.778;7.196;2023-12-28T01:07:54;9.40;1.00
9824;DHT22;4951;50.778;7.196;2023-12-28T01:10:33;9.40;99.90
9824;DHT22;4951;50.778;7.196;2023-12-28T01:13:08;9.40;1.00
9824;DHT22;4951;50.778;7.196;2023-12-28T01:15:42;9.40;1.00
9824;DHT22;4951;50.778;7.196;2023-12-28T01:18:12;9.40;1.00
9824;DHT22;4951;50.778;7.196;2023-12-28T01:20:42;9.40;99.90
9824;DHT22;4951;50.778;7.196;2023-12-28T01:23:14;9.40;1.00
9824;DHT22;4951;50.778;7.196;2023-12-28T01:25:54;9.40;1.00
9824;DHT22;4951;50.778;7.196;2023-12-28T01:28:35;9.40;1.00
9824;DHT22;4951;50.778;7.196;2023-12-28T01:31:13;9.40;99.70
9824;DHT22;4951;50.778;7.196;2023-12-28T01:34:03;9.40;99.90
9824;DHT22;4951;50.778;7.196;2023-12-28T01:36:43;9.50;99.90
9824;DHT22;4951;50.778;7.196;2023-12-28T01:39:14;9.50;1.00
9824;DHT22;4951;50.778;7.196;2023-12-28T01:41:47;9.50;1.00
9824;DHT22;4951;50.778;7.196;2023-12-28T01:44:18;9.50;1.00
9824;DHT22;4951;50.778;7.196;2023-12-28T01:46:50;9.50;99.90
9824;DHT22;4951;50.778;7.196;2023-12-28T01:49:28;9.60;1.00
9824;DHT22;4951;50.778;7.196;2023-12-28T01:52:06;9.50;1.00
9824;DHT22;4951;50.778;7.196;2023-12-28T01:54:39;9.60;1.00
9824;DHT22;4951;50.778;7.196;2023-12-28T01:57:08;9.60;1.00
9824;DHT22;4951;50.778;7.196;2023-12-28T01:59:38;9.60;1.00
9824;DHT22;4951;50.778;7.196;2023-12-28T02:02:13;9.50;76.60
9824;DHT22;4951;50.778;7.196;2023-12-28T02:05:03;9.50;99.90
9824;DHT22;4951;50.778;7.196;2023-12-28T02:07:36;9.50;1.00
9824;DHT22;4951;50.778;7.196;2023-12-28T02:10:10;9.50;1.00
9824;DHT22;4951;50.778;7.196;2023-12-28T02:12:48;9.50;1.00
9824;DHT22;4951;50.778;7.196;2023-12-28T02:15:33;9.40;99.90
9824;DHT22;4951;50.778;7.196;2023-12-28T02:18:12;9.50;99.90
9824;DHT22;4951;50.778;7.196;2023-12-28T02:20:53;9.40;1.00
9824;DHT22;4951;50.778;7.196;2023-12-28T02:23:29;9.40;1.00
9824;DHT22;4951;50.778;7.196;2023-12-28T02:26:15;9.40;1.00
9824;DHT22;4951;50.778;7.196;2023-12-28T02:28:43;9.30;1.00
9824;DHT22;4951;50.778;7.196;2023-12-28T02:31:42;9.30;73.70
9824;DHT22;4951;50.778;7.196;2023-12-28T02:34:19;9.30;99.90
9824;DHT22;4951;50.778;7.196;2023-12-28T02:36:55;9.30;99.90
9824;DHT22;4951;50.778;7.196;2023-12-28T02:39:28;9.30;1.00
9824;DHT22;4951;50.778;7.196;2023-12-28T02:42:05;9.30;1.00
9824;DHT22;4951;50.778;7.196;2023-12-28T02:44:34;9.30;1.00
9824;DHT22;4951;50.778;7.196;2023-12-28T02:47:05;9.30;1.00
9824;DHT22;4951;50.778;7.196;2023-12-28T02:49:36;9.30;1.00
9824;DHT22;4951;50.778;7.196;2023-12-28T02:52:21;9.30;1.00
9824;DHT22;4951;50.778;7.196;2023-12-28T02:54:53;9.30;1.00
9824;DHT22;4951;50.778;7.196;2023-12-28T02:57:38;9.30;1.00
9824;DHT22;4951;50.778;7.196;2023-12-28T03:00:10;9.30;1.00
9824;DHT22;4951;50.778;7.196;2023-12-28T03:02:55;9.20;1.00
9824;DHT22;4951;50.778;7.196;2023-12-28T03:05:26;9.20;62.60
9824;DHT22;4951;50.778;7.196;2023-12-28T03:07:56;9.20;99.90
9824;DHT22;4951;50.778;7.196;2023-12-28T03:10:25;9.20;99.90
9824;DHT22;4951;50.778;7.196;2023-12-28T03:13:02;9.10;99.90
9824;DHT22;4951;50.778;7.196;2023-12-28T03:15:55;9.10;99.90
9824;DHT22;4951;50.778;7.196;2023-12-28T03:18:31;9.00;99.90
9824;DHT22;4951;50.778;7.196;2023-12-28T03:21:00;9.00;1.00
9824;DHT22;4951;50.778;7.196;2023-12-28T03:23:34;9.00;1.00
9824;DHT22;4951;50.778;7.196;2023-12-28T03:26:03;9.00;1.00
9824;DHT22;4951;50.778;7.196;2023-12-28T03:28:32;9.00;1.00
9824;DHT22;4951;50.778;7.196;2023-12-28T03:31:04;9.10;1.00
9824;DHT22;4951;50.778;7.196;2023-12-28T03:33:39;9.10;1.00
9824;DHT22;4951;50.778;7.196;2023-12-28T03:36:19;9.10;1.00
9824;DHT22;4951;50.778;7.196;2023-12-28T03:38:49;9.00;1.00
9824;DHT22;4951;50.778;7.196;2023-12-28T03:41:23;9.00;1.00
9824;DHT22;4951;50.778;7.196;2023-12-28T03:43:53;9.00;1.00
9824;DHT22;4951;50.778;7.196;2023-12-28T03:46:22;8.90;1.00
9824;DHT22;4951;50.778;7.196;2023-12-28T03:48:51;9.00;1.00
9824;DHT22;4951;50.778;7.196;2023-12-28T03:51:21;9.00;1.00
9824;DHT22;4951;50.778;7.196;2023-12-28T03:53:50;8.90;1.00
9824;DHT22;4951;50.778;7.196;2023-12-28T03:56:21;8.90;1.00
9824;DHT22;4951;50.778;7.196;2023-12-28T03:58:54;8.90;1.00
9824;DHT22;4951;50.778;7.196;2023-12-28T04:01:26;9.00;1.00
9824;DHT22;4951;50.778;7.196;2023-12-28T04:03:56;8.90;1.00
9824;DHT22;4951;50.778;7.196;2023-12-28T04:06:26;8.90;1.00
9824;DHT22;4951;50.778;7.196;2023-12-28T04:08:58;9.00;1.00
9824;DHT22;4951;50.778;7.196;2023-12-28T04:11:30;9.00;1.00
9824;DHT22;4951;50.778;7.196;2023-12-28T04:14:10;9.00;1.00
9824;DHT22;4951;50.778;7.196;2023-12-28T04:16:42;9.00;1.00
9824;DHT22;4951;50.778;7.196;2023-12-28T04:19:15;8.90;1.00
9824;DHT22;4951;50.778;7.196;2023-12-28T04:21:45;8.90;1.00
9824;DHT22;4951;50.778;7.196;2023-12-28T04:24:14;8.90;1.00
9824;DHT22;4951;50.778;7.196;2023-12-28T04:26:57;8.80;1.00
9824;DHT22;4951;50.778;7.196;2023-12-28T04:29:38;8.80;1.00
9824;DHT22;4951;50.778;7.196;2023-12-28T04:32:11;8.80;1.00
9824;DHT22;4951;50.778;7.196;2023-12-28T04:35:02;8.80;1.00
9824;DHT22;4951;50.778;7.196;2023-12-28T04:37:41;8.70;1.00
9824;DHT22;4951;50.778;7.196;2023-12-28T04:40:29;8.80;1.00
9824;DHT22;4951;50.778;7.196;2023-12-28T04:43:05;8.70;1.00
9824;DHT22;4951;50.778;7.196;2023-12-28T04:45:42;8.80;1.00
9824;DHT22;4951;50.778;7.196;2023-12-28T04:48:20;8.80;1.00
9824;DHT22;4951;50.778;7.196;2023-12-28T04:50:52;8.80;1.00
9824;DHT22;4951;50.778;7.196;2023-12-28T04:53:20;8.70;1.00
9824;DHT22;4951;50.778;7.196;2023-12-28T04:55:51;8.70;1.00
9824;DHT22;4951;50.778;7.196;2023-12-28T04:58:24;8.70;1.00
9824;DHT22;4951;50.778;7.196;2023-12-28T05:00:53;8.70;1.00
9824;DHT22;4951;50.778;7.196;2023-12-28T05:03:22;8.70;1.00
9824;DHT22;4951;50.778;7.196;2023-12-28T05:06:01;8.70;1.00
9824;DHT22;4951;50.778;7.196;2023-12-28T05:08:29;8.70;1.00
9824;DHT22;4951;50.778;7.196;2023-12-28T05:11:05;8.70;1.00
9824;DHT22;4951;50.778;7.196;2023-12-28T05:13:33;8.70;1.00
9824;DHT22;4951;50.778;7.196;2023-12-28T05:16:06;8.80;1.00
9824;DHT22;4951;50.778;7.196;2023-12-28T05:18:37;8.80;1.00
9824;DHT22;4951;50.778;7.196;2023-12-28T05:21:12;8.70;1.00
9824;DHT22;4951;50.778;7.196;2023-12-28T05:23:44;8.80;1.00
9824;DHT22;4951;50.778;7.196;2023-12-28T05:26:12;8.80;1.00
9824;DHT22;4951;50.778;7.196;2023-12-28T05:28:41;8.80;1.00
9824;DHT22;4951;50.778;7.196;2023-12-28T05:31:12;8.70;1.00
9824;DHT22;4951;50.778;7.196;2023-12-28T05:33:48;8.70;1.00
9824;DHT22;4951;50.778;7.196;2023-12-28T05:36:19;8.70;1.00
9824;DHT22;4951;50.778;7.196;2023-12-28T05:39:06;8.70;1.00
9824;DHT22;4951;50.778;7.196;2023-12-28T05:41:36;8.70;1.00
9824;DHT22;4951;50.778;7.196;2023-12-28T05:44:08;8.60;1.00
9824;DHT22;4951;50.778;7.196;2023-12-28T05:46:40;8.60;1.00
9824;DHT22;4951;50.778;7.196;2023-12-28T05:49:20;8.60;1.00
9824;DHT22;4951;50.778;7.196;2023-12-28T05:51:50;8.60;1.00
9824;DHT22;4951;50.778;7.196;2023-12-28T05:54:34;8.60;1.00
9824;DHT22;4951;50.778;7.196;2023-12-28T05:57:11;8.60;1.00
9824;DHT22;4951;50.778;7.196;2023-12-28T05:59:44;8.60;1.00
9824;DHT22;4951;50.778;7.196;2023-12-28T06:02:14;8.60;1.00
9824;DHT22;4951;50.778;7.196;2023-12-28T06:04:48;8.50;1.00
9824;DHT22;4951;50.778;7.196;2023-12-28T06:07:34;8.50;1.00
9824;DHT22;4951;50.778;7.196;2023-12-28T06:10:22;8.40;1.00
9824;DHT22;4951;50.778;7.196;2023-12-28T06:13:04;8.40;1.00
9824;DHT22;4951;50.778;7.196;2023-12-28T06:15:52;8.40;1.00
9824;DHT22;4951;50.778;7.196;2023-12-28T06:18:43;8.40;1.00
9824;DHT22;4951;50.778;7.196;2023-12-28T06:21:31;8.30;1.00
9824;DHT22;4951;50.778;7.196;2023-12-28T06:24:20;8.30;1.00
9824;DHT22;4951;50.778;7.196;2023-12-28T06:27:10;8.20;1.00
9824;DHT22;4951;50.778;7.196;2023-12-28T06:29:41;8.20;1.00
9824;DHT22;4951;50.778;7.196;2023-12-28T06:32:11;8.00;1.00
9824;DHT22;4951;50.778;7.196;2023-12-28T06:35:03;8.00;1.00
9824;DHT22;4951;50.778;7.196;2023-12-28T06:37:37;8.00;62.80
9824;DHT22;4951;50.778;7.196;2023-12-28T06:40:13;8.00;89.40
9824;DHT22;4951;50.778;7.196;2023-12-28T06:42:46;8.00;95.40
9824;DHT22;4951;50.778;7.196;2023-12-28T06:45:13;8.00;60.60
9824;DHT22;4951;50.778;7.196;2023-12-28T06:47:42;7.90;68.60
9824;DHT22;4951;50.778;7.196;2023-12-28T06:50:12;7.90;37.90
9824;DHT22;4951;50.778;7.196;2023-12-28T06:52:42;7.90;33.80
9824;DHT22;4951;50.778;7.196;2023-12-28T06:55:10;7.90;99.90
9824;DHT22;4951;50.778;7.196;2023-12-28T06:57:45;7.90;99.90
9824;DHT22;4951;50.778;7.196;2023-12-28T07:00:14;7.90;99.90
9824;DHT22;4951;50.778;7.196;2023-12-28T07:02:44;7.90;99.90
9824;DHT22;4951;50.778;7.196;2023-12-28T07:05:19;7.90;99.90
9824;DHT22;4951;50.778;7.196;2023-12-28T07:07:48;7.80;99.90
9824;DHT22;4951;50.778;7.196;2023-12-28T07:10:18;7.90;99.90
9824;DHT22;4951;50.778;7.196;2023-12-28T07:12:49;7.90;99.90
9824;DHT22;4951;50.778;7.196;2023-12-28T07:15:18;8.00;99.90
9824;DHT22;4951;50.778;7.196;2023-12-28T07:17:46;8.00;99.90
9824;DHT22;4951;50.778;7.196;2023-12-28T07:20:16;8.10;99.90
9824;DHT22;4951;50.778;7.196;2023-12-28T07:22:46;8.10;99.90
9824;DHT22;4951;50.778;7.196;2023-12-28T07:25:17;8.20;99.90
9824;DHT22;4951;50.778;7.196;2023-12-28T07:27:49;8.20;57.10
9824;DHT22;4951;50.778;7.196;2023-12-28T07:30:19;8.20;34.90
9824;DHT22;4951;50.778;7.196;2023-12-28T07:32:47;8.20;1.00
9824;DHT22;4951;50.778;7.196;2023-12-28T07:35:18;8.20;1.00
9824;DHT22;4951;50.778;7.196;2023-12-28T07:37:48;8.20;11.80
9824;DHT22;4951;50.778;7.196;2023-12-28T07:40:17;8.20;1.00
9824;DHT22;4951;50.778;7.196;2023-12-28T07:42:51;8.20;1.00
9824;DHT22;4951;50.778;7.196;2023-12-28T07:45:20;8.10;1.40
9824;DHT22;4951;50.778;7.196;2023-12-28T07:47:51;8.20;1.00
9824;DHT22;4951;50.778;7.196;2023-12-28T07:50:24;8.10;1.00
9824;DHT22;4951;50.778;7.196;2023-12-28T07:53:11;8.10;1.00
9824;DHT22;4951;50.778;7.196;2023-12-28T07:55:50;8.10;1.00
9824;DHT22;4951;50.778;7.196;2023-12-28T07:58:28;8.10;1.00
9824;DHT22;4951;50.778;7.196;2023-12-28T08:01:01;8.10;1.00
9824;DHT22;4951;50.778;7.196;2023-12-28T08:03:38;8.00;1.00
9824;DHT22;4951;50.778;7.196;2023-12-28T08:06:33;7.90;1.00
9824;DHT22;4951;50.778;7.196;2023-12-28T08:09:06;7.80;14.10
9824;DHT22;4951;50.778;7.196;2023-12-28T08:11:37;7.70;13.00
9824;DHT22;4951;50.778;7.196;2023-12-28T08:14:23;7.70;55.50
9824;DHT22;4951;50.778;7.196;2023-12-28T08:17:03;7.60;92.10
9824;DHT22;4951;50.778;7.196;2023-12-28T08:19:33;7.60;99.90
9824;DHT22;4951;50.778;7.196;2023-12-28T08:22:07;7.50;99.90
9824;DHT22;4951;50.778;7.196;2023-12-28T08:24:36;7.50;99.90
9824;DHT22;4951;50.778;7.196;2023-12-28T08:27:05;7.50;99.90
9824;DHT22;4951;50.778;7.196;2023-12-28T08:29:32;7.50;99.90
9824;DHT22;4951;50.778;7.196;2023-12-28T08:32:14;7.50;99.90
9824;DHT22;4951;50.778;7.196;2023-12-28T08:35:19;7.60;99.90
9824;DHT22;4951;50.778;7.196;2023-12-28T08:37:54;7.60;99.90
9824;DHT22;4951;50.778;7.196;2023-12-28T08:40:24;7.70;99.90
9824;DHT22;4951;50.778;7.196;2023-12-28T08:42:52;7.80;99.90
9824;DHT22;4951;50.778;7.196;2023-12-28T08:45:25;7.90;99.90
9824;DHT22;4951;50.778;7.196;2023-12-28T08:47:55;7.90;99.90
9824;DHT22;4951;50.778;7.196;2023-12-28T08:50:24;8.00;99.90
9824;DHT22;4951;50.778;7.196;2023-12-28T08:52:57;8.10;99.90
9824;DHT22;4951;50.778;7.196;2023-12-28T08:55:44;8.20;99.90
9824;DHT22;4951;50.778;7.196;2023-12-28T08:58:21;8.30;99.90
9824;DHT22;4951;50.778;7.196;2023-12-28T09:01:16;8.40;91.00
9824;DHT22;4951;50.778;7.196;2023-12-28T09:03:52;8.40;58.90
9824;DHT22;4951;50.778;7.196;2023-12-28T09:06:35;8.50;9.10
9824;DHT22;4951;50.778;7.196;2023-12-28T09:09:24;8.60;1.00
9824;DHT22;4951;50.778;7.196;2023-12-28T09:12:02;8.70;1.00
9824;DHT22;4951;50.778;7.196;2023-12-28T09:14:41;8.80;1.00
9824;DHT22;4951;50.778;7.196;2023-12-28T09:17:11;9.00;1.00
9824;DHT22;4951;50.778;7.196;2023-12-28T09:19:41;9.10;1.00
9824;DHT22;4951;50.778;7.196;2023-12-28T09:22:14;9.20;1.00
9824;DHT22;4951;50.778;7.196;2023-12-28T09:24:46;9.40;1.00
9824;DHT22;4951;50.778;7.196;2023-12-28T09:27:17;9.50;1.00
9824;DHT22;4951;50.778;7.196;2023-12-28T09:29:49;9.60;99.90
9824;DHT22;4951;50.778;7.196;2023-12-28T09:32:21;9.90;99.90
9824;DHT22;4951;50.778;7.196;2023-12-28T09:34:50;10.10;99.90
9824;DHT22;4951;50.778;7.196;2023-12-28T09:37:18;10.30;99.90
9824;DHT22;4951;50.778;7.196;2023-12-28T09:40:07;10.40;1.00
9824;DHT22;4951;50.778;7.196;2023-12-28T09:42:43;10.60;99.90
9824;DHT22;4951;50.778;7.196;2023-12-28T09:45:20;10.70;1.00
9824;DHT22;4951;50.778;7.196;2023-12-28T09:47:56;10.80;1.00
9824;DHT22;4951;50.778;7.196;2023-12-28T09:50:37;10.80;1.00
9824;DHT22;4951;50.778;7.196;2023-12-28T09:53:06;10.80;1.00
9824;DHT22;4951;50.778;7.196;2023-12-28T09:55:36;10.80;99.90
9824;DHT22;4951;50.778;7.196;2023-12-28T09:58:07;10.80;99.90
9824;DHT22;4951;50.778;7.196;2023-12-28T10:00:45;10.80;99.90
9824;DHT22;4951;50.778;7.196;2023-12-28T10:03:15;10.70;1.00
9824;DHT22;4951;50.778;7.196;2023-12-28T10:05:54;10.70;1.00
9824;DHT22;4951;50.778;7.196;2023-12-28T10:08:35;10.60;1.00
9824;DHT22;4951;50.778;7.196;2023-12-28T10:11:17;10.50;18.80
9824;DHT22;4951;50.778;7.196;2023-12-28T10:13:49;10.50;66.70
9824;DHT22;4951;50.778;7.196;2023-12-28T10:16:21;10.50;99.90
9824;DHT22;4951;50.778;7.196;2023-12-28T10:19:12;10.50;99.90
9824;DHT22;4951;50.778;7.196;2023-12-28T10:22:19;10.50;1.00
9824;DHT22;4951;50.778;7.196;2023-12-28T10:25:08;10.60;1.00
9824;DHT22;4951;50.778;7.196;2023-12-28T10:28:19;10.70;99.90
9824;DHT22;4951;50.778;7.196;2023-12-28T10:30:57;10.80;1.00
9824;DHT22;4951;50.778;7.196;2023-12-28T10:33:55;10.80;1.00
9824;DHT22;4951;50.778;7.196;2023-12-28T10:36:53;10.80;1.00
9824;DHT22;4951;50.778;7.196;2023-12-28T10:42:46;11.00;82.10
9824;DHT22;4951;50.778;7.196;2023-12-28T10:45:35;11.10;1.00
9824;DHT22;4951;50.778;7.196;2023-12-28T10:48:25;11.10;1.00
9824;DHT22;4951;50.778;7.196;2023-12-28T10:51:11;11.20;90.40
9824;DHT22;4951;50.778;7.196;2023-12-28T10:54:17;11.30;99.90
9824;DHT22;4951;50.778;7.196;2023-12-28T10:57:39;11.30;99.90
9824;DHT22;4951;50.778;7.196;2023-12-28T11:00:28;11.40;1.00
9824;DHT22;4951;50.778;7.196;2023-12-28T11:03:23;11.50;1.00
9824;DHT22;4951;50.778;7.196;2023-12-28T11:06:17;11.60;99.90
9824;DHT22;4951;50.778;7.196;2023-12-28T11:09:01;11.70;1.00
9824;DHT22;4951;50.778;7.196;2023-12-28T11:11:33;11.90;1.00
9824;DHT22;4951;50.778;7.196;2023-12-28T11:14:27;11.90;99.90
9824;DHT22;4951;50.778;7.196;2023-12-28T11:17:08;11.90;1.00
9824;DHT22;4951;50.778;7.196;2023-12-28T11:20:07;12.00;1.00
9824;DHT22;4951;50.778;7.196;2023-12-28T11:22:56;12.10;1.00
9824;DHT22;4951;50.778;7.196;2023-12-28T11:25:47;12.10;1.00
9824;DHT22;4951;50.778;7.196;2023-12-28T11:28:34;12.20;99.90
9824;DHT22;4951;50.778;7.196;2023-12-28T11:31:22;12.30;99.90
9824;DHT22;4951;50.778;7.196;2023-12-28T11:33:51;12.50;99.90
9824;DHT22;4951;50.778;7.196;2023-12-28T11:36:48;12.70;99.90
9824;DHT22;4951;50.778;7.196;2023-12-28T11:39:41;12.90;1.00
9824;DHT22;4951;50.778;7.196;2023-12-28T11:42:23;13.20;1.00
9824;DHT22;4951;50.778;7.196;2023-12-28T11:45:02;13.40;1.00
9824;DHT22;4951;50.778;7.196;2023-12-28T11:47:59;13.50;99.90
9824;DHT22;4951;50.778;7.196;2023-12-28T11:50:34;13.60;99.90
9824;DHT22;4951;50.778;7.196;2023-12-28T11:53:13;13.60;99.90
9824;DHT22;4951;50.778;7.196;2023-12-28T11:55:50;13.70;99.90
9824;DHT22;4951;50.778;7.196;2023-12-28T11:58:21;13.80;99.90
9824;DHT22;4951;50.778;7.196;2023-12-28T12:00:51;13.90;99.90
9824;DHT22;4951;50.778;7.196;2023-12-28T12:03:25;14.00;99.90
9824;DHT22;4951;50.778;7.196;2023-12-28T12:06:00;14.10;99.90
9824;DHT22;4951;50.778;7.196;2023-12-28T12:08:38;14.20;99.90
9824;DHT22;4951;50.778;7.196;2023-12-28T12:11:10;14.30;99.90
9824;DHT22;4951;50.778;7.196;2023-12-28T12:13:41;14.40;99.90
9824;DHT22;4951;50.778;7.196;2023-12-28T12:16:14;14.40;99.90
9824;DHT22;4951;50.778;7.196;2023-12-28T12:18:45;14.50;78.10
9824;DHT22;4951;50.778;7.196;2023-12-28T12:21:17;14.50;1.00
9824;DHT22;4951;50.778;7.196;2023-12-28T12:23:53;14.50;1.00
9824;DHT22;4951;50.778;7.196;2023-12-28T12:26:26;14.40;1.00
9824;DHT22;4951;50.778;7.196;2023-12-28T12:28:56;14.40;1.00
9824;DHT22;4951;50.778;7.196;2023-12-28T12:31:27;14.30;1.00
9824;DHT22;4951;50.778;7.196;2023-12-28T12:33:55;14.30;1.00
9824;DHT22;4951;50.778;7.196;2023-12-28T12:36:26;14.30;1.00
9824;DHT22;4951;50.778;7.196;2023-12-28T12:39:07;14.20;1.00
9824;DHT22;4951;50.778;7.196;2023-12-28T12:41:37;14.20;1.00
9824;DHT22;4951;50.778;7.196;2023-12-28T12:44:08;14.20;1.00
9824;DHT22;4951;50.778;7.196;2023-12-28T12:46:38;14.10;1.00
9824;DHT22;4951;50.778;7.196;2023-12-28T12:49:06;14.00;1.00
9824;DHT22;4951;50.778;7.196;2023-12-28T12:51:36;13.90;1.00
9824;DHT22;4951;50.778;7.196;2023-12-28T12:54:10;13.90;1.00
9824;DHT22;4951;50.778;7.196;2023-12-28T12:56:42;13.70;1.00
9824;DHT22;4951;50.778;7.196;2023-12-28T12:59:29;13.50;1.00
9824;DHT22;4951;50.778;7.196;2023-12-28T13:02:28;13.40;1.00
9824;DHT22;4951;50.778;7.196;2023-12-28T13:05:05;13.20;1.00
9824;DHT22;4951;50.778;7.196;2023-12-28T13:08:32;13.20;1.00
9824;DHT22;4951;50.778;7.196;2023-12-28T13:11:40;13.10;1.00
9824;DHT22;4951;50.778;7.196;2023-12-28T13:14:38;13.00;1.00
9824;DHT22;4951;50.778;7.196;2023-12-28T13:17:56;12.90;1.00
9824;DHT22;4951;50.778;7.196;2023-12-28T13:21:17;12.90;1.00
9824;DHT22;4951;50.778;7.196;2023-12-28T13:24:12;12.70;1.00
9824;DHT22;4951;50.778;7.196;2023-12-28T13:27:01;12.60;1.00
9824;DHT22;4951;50.778;7.196;2023-12-28T13:29:52;12.60;1.00
9824;DHT22;4951;50.778;7.196;2023-12-28T13:32:24;12.60;1.00
9824;DHT22;4951;50.778;7.196;2023-12-28T13:35:10;12.60;1.00
9824;DHT22;4951;50.778;7.196;2023-12-28T13:37:40;12.50;1.00
9824;DHT22;4951;50.778;7.196;2023-12-28T13:40:14;12.50;1.00
9824;DHT22;4951;50.778;7.196;2023-12-28T13:42:48;12.50;1.00
9824;DHT22;4951;50.778;7.196;2023-12-28T13:45:21;12.50;1.00
9824;DHT22;4951;50.778;7.196;2023-12-28T13:47:53;12.60;1.00
9824;DHT22;4951;50.778;7.196;2023-12-28T13:50:23;12.60;1.00
9824;DHT22;4951;50.778;7.196;2023-12-28T13:52:59;12.60;1.00
9824;DHT22;4951;50.778;7.196;2023-12-28T13:55:42;12.60;1.00
9824;DHT22;4951;50.778;7.196;2023-12-28T13:58:18;12.50;1.00
9824;DHT22;4951;50.778;7.196;2023-12-28T14:00:49;12.50;1.00
9824;DHT22;4951;50.778;7.196;2023-12-28T14:03:30;12.40;1.00
9824;DHT22;4951;50.778;7.196;2023-12-28T14:06:23;12.30;1.00
9824;DHT22;4951;50.778;7.196;2023-12-28T14:08:57;12.20;1.00
9824;DHT22;4951;50.778;7.196;2023-12-28T14:11:34;12.10;1.00
9824;DHT22;4951;50.778;7.196;2023-12-28T14:14:20;12.10;1.00
9824;DHT22;4951;50.778;7.196;2023-12-28T14:17:08;12.00;1.00
9824;DHT22;4951;50.778;7.196;2023-12-28T14:19:52;12.00;1.00
9824;DHT22;4951;50.778;7.196;2023-12-28T14:22:31;12.00;1.00
9824;DHT22;4951;50.778;7.196;2023-12-28T14:25:16;11.90;1.00
9824;DHT22;4951;50.778;7.196;2023-12-28T14:27:51;11.90;1.00
9824;DHT22;4951;50.778;7.196;2023-12-28T14:30:27;11.80;1.00
9824;DHT22;4951;50.778;7.196;2023-12-28T14:33:06;11.80;1.00
9824;DHT22;4951;50.778;7.196;2023-12-28T14:35:50;11.80;1.00
9824;DHT22;4951;50.778;7.196;2023-12-28T14:38:20;11.80;1.00
9824;DHT22;4951;50.778;7.196;2023-12-28T14:40:55;11.70;1.00
9824;DHT22;4951;50.778;7.196;2023-12-28T14:43:39;11.70;1.00
9824;DHT22;4951;50.778;7.196;2023-12-28T14:46:26;11.60;1.00
9824;DHT22;4951;50.778;7.196;2023-12-28T14:48:54;11.60;1.00
9824;DHT22;4951;50.778;7.196;2023-12-28T14:51:25;11.60;15.90
9824;DHT22;4951;50.778;7.196;2023-12-28T14:54:00;11.60;26.20
9824;DHT22;4951;50.778;7.196;2023-12-28T14:56:32;11.60;35.90
9824;DHT22;4951;50.778;7.196;2023-12-28T14:59:05;11.60;47.30
9824;DHT22;4951;50.778;7.196;2023-12-28T15:01:38;11.50;58.50
9824;DHT22;4951;50.778;7.196;2023-12-28T15:04:15;11.50;84.90
9824;DHT22;4951;50.778;7.196;2023-12-28T15:06:47;11.50;99.90
9824;DHT22;4951;50.778;7.196;2023-12-28T15:09:18;11.50;99.90
9824;DHT22;4951;50.778;7.196;2023-12-28T15:11:51;11.40;99.90
9824;DHT22;4951;50.778;7.196;2023-12-28T15:14:33;11.50;99.90
9824;DHT22;4951;50.778;7.196;2023-12-28T15:17:04;11.40;99.90
9824;DHT22;4951;50.778;7.196;2023-12-28T15:19:38;11.40;99.90
9824;DHT22;4951;50.778;7.196;2023-12-28T15:22:13;11.30;99.90
9824;DHT22;4951;50.778;7.196;2023-12-28T15:24:45;11.20;99.90
9824;DHT22;4951;50.778;7.196;2023-12-28T15:27:13;11.20;99.90
9824;DHT22;4951;50.778;7.196;2023-12-28T15:29:54;11.10;99.90
9824;DHT22;4951;50.778;7.196;2023-12-28T15:32:26;11.10;99.90
9824;DHT22;4951;50.778;7.196;2023-12-28T15:35:05;11.00;99.90
9824;DHT22;4951;50.778;7.196;2023-12-28T15:37:37;10.90;99.90
9824;DHT22;4951;50.778;7.196;2023-12-28T15:40:11;10.90;99.90
9824;DHT22;4951;50.778;7.196;2023-12-28T15:42:58;10.80;99.90
9824;DHT22;4951;50.778;7.196;2023-12-28T15:45:42;10.70;99.90
9824;DHT22;4951;50.778;7.196;2023-12-28T15:48:20;10.60;99.90
9824;DHT22;4951;50.778;7.196;2023-12-28T15:51:04;10.60;1.00
9824;DHT22;4951;50.778;7.196;2023-12-28T15:53:44;10.60;1.00
9824;DHT22;4951;50.778;7.196;2023-12-28T15:56:12;10.50;1.00
9824;DHT22;4951;50.778;7.196;2023-12-28T15:58:45;10.50;1.00
9824;DHT22;4951;50.778;7.196;2023-12-28T16:01:15;10.50;1.00
9824;DHT22;4951;50.778;7.196;2023-12-28T16:03:56;10.50;1.00
9824;DHT22;4951;50.778;7.196;2023-12-28T16:06:29;10.50;1.00
9824;DHT22;4951;50.778;7.196;2023-12-28T16:09:06;10.50;1.00
9824;DHT22;4951;50.778;7.196;2023-12-28T16:11:45;10.50;1.00
9824;DHT22;4951;50.778;7.196;2023-12-28T16:14:20;10.50;1.00
9824;DHT22;4951;50.778;7.196;2023-12-28T16:17:08;10.50;15.10
9824;DHT22;4951;50.778;7.196;2023-12-28T16:19:40;10.60;99.90
9824;DHT22;4951;50.778;7.196;2023-12-28T16:22:11;10.50;99.90
9824;DHT22;4951;50.778;7.196;2023-12-28T16:24:42;10.50;99.90
9824;DHT22;4951;50.778;7.196;2023-12-28T16:27:20;10.50;99.90
9824;DHT22;4951;50.778;7.196;2023-12-28T16:29:48;10.50;99.90
9824;DHT22;4951;50.778;7.196;2023-12-28T16:32:20;10.50;99.90
9824;DHT22;4951;50.778;7.196;2023-12-28T16:35:00;10.40;1.00
9824;DHT22;4951;50.778;7.196;2023-12-28T16:37:35;10.40;1.00
9824;DHT22;4951;50.778;7.196;2023-12-28T16:40:05;10.30;1.00
9824;DHT22;4951;50.778;7.196;2023-12-28T16:42:39;10.30;1.00
9824;DHT22;4951;50.778;7.196;2023-12-28T16:45:21;10.30;1.00
9824;DHT22;4951;50.778;7.196;2023-12-28T16:48:16;10.30;29.00
9824;DHT22;4951;50.778;7.196;2023-12-28T16:51:13;10.30;99.90
9824;DHT22;4951;50.778;7.196;2023-12-28T16:53:50;10.30;99.90
9824;DHT22;4951;50.778;7.196;2023-12-28T16:56:31;10.30;99.90
9824;DHT22;4951;50.778;7.196;2023-12-28T16:59:20;10.20;99.90
9824;DHT22;4951;50.778;7.196;2023-12-28T17:02:13;10.20;99.90
9824;DHT22;4951;50.778;7.196;2023-12-28T17:05:16;10.20;1.00
9824;DHT22;4951;50.778;7.196;2023-12-28T17:08:03;10.20;1.00
9824;DHT22;4951;50.778;7.196;2023-12-28T17:10:48;10.20;99.90
9824;DHT22;4951;50.778;7.196;2023-12-28T17:16:29;10.30;1.00
9824;DHT22;4951;50.778;7.196;2023-12-28T17:19:39;10.30;1.00
9824;DHT22;4951;50.778;7.196;2023-12-28T17:22:25;10.30;1.00
9824;DHT22;4951;50.778;7.196;2023-12-28T17:25:07;10.30;1.00
9824;DHT22;4951;50.778;7.196;2023-12-28T17:27:52;10.20;1.00
9824;DHT22;4951;50.778;7.196;2023-12-28T17:30:36;10.20;1.00
9824;DHT22;4951;50.778;7.196;2023-12-28T17:33:29;10.20;1.00